sensor_id;sensor_type;location;lat;lon;timestamp;P1;durP1;ratioP1;P2;durP2;ratioP2
15287;SDS011;7745;48.708;9.026;2024-03-29T00:01:16;1.30;;;0.70;;
15287;SDS011;7745;48.708;9.026;2024-03-29T00:03:41;1.13;;;0.70;;
15287;SDS011;7745;48.708;9.026;2024-03-29T00:06:09;1.20;;;0.83;;
15287;SDS011;7745;48.708;9.026;2024-03-29T00:08:35;2.57;;;0.97;;
15287;SDS011;7745;48.708;9.026;2024-03-29T00:11:00;3.80;;;1.07;;
15287;SDS011;7745;48.708;9.026;2024-03-29T00:13:26;1.40;;;0.80;;
15287;SDS011;7745;48.708;9.026;2024-03-29T00:15:52;1.37;;;0.80;;
15287;SDS011;7745;48.708;9.026;2024-03-29T00:18:18;2.20;;;0.90;;
15287;SDS011;7745;48.708;9.026;2024-03-29T00:20:44;1.93;;;0.93;;
15287;SDS011;7745;48.708;9.026;2024-03-29T00:23:11;1.90;;;1.00;;
15287;SDS011;7745;48.708;9.026;2024-03-29T00:25:37;1.27;;;0.70;;
15287;SDS011;7745;48.708;9.026;2024-03-29T00:28:03;2.07;;;0.90;;
15287;SDS011;7745;48.708;9.026;2024-03-29T00:30:29;2.40;;;0.90;;
15287;SDS011;7745;48.708;9.026;2024-03-29T00:32:55;1.30;;;0.80;;
15287;SDS011;7745;48.708;9.026;2024-03-29T00:35:21;2.47;;;1.00;;
15287;SDS011;7745;48.708;9.026;2024-03-29T00:37:47;3.63;;;0.83;;
15287;SDS011;7745;48.708;9.026;2024-03-29T00:40:15;2.03;;;0.93;;
15287;SDS011;7745;48.708;9.026;2024-03-29T00:42:41;1.57;;;0.77;;
15287;SDS011;7745;48.708;9.026;2024-03-29T00:45:07;0.83;;;0.70;;
15287;SDS011;7745;48.708;9.026;2024-03-29T00:47:34;2.20;;;0.90;;
15287;SDS011;7745;48.708;9.026;2024-03-29T00:50:00;1.57;;;0.80;;
15287;SDS011;7745;48.708;9.026;2024-03-29T00:52:25;1.40;;;0.90;;
15287;SDS011;7745;48.708;9.026;2024-03-29T00:54:51;1.43;;;0.77;;
15287;SDS011;7745;48.708;9.026;2024-03-29T00:57:19;2.50;;;0.90;;
15287;SDS011;7745;48.708;9.026;2024-03-29T00:59:45;1.77;;;0.77;;
15287;SDS011;7745;48.708;9.026;2024-03-29T01:02:12;1.97;;;0.93;;
15287;SDS011;7745;48.708;9.026;2024-03-29T01:04:38;2.33;;;0.90;;
15287;SDS011;7745;48.708;9.026;2024-03-29T01:07:04;2.57;;;0.77;;
15287;SDS011;7745;48.708;9.026;2024-03-29T01:09:30;1.53;;;0.80;;
15287;SDS011;7745;48.708;9.026;2024-03-29T01:11:55;0.93;;;0.80;;
15287;SDS011;7745;48.708;9.026;2024-03-29T01:14:23;0.77;;;0.67;;
15287;SDS011;7745;48.708;9.026;2024-03-29T01:16:49;1.37;;;0.90;;
15287;SDS011;7745;48.708;9.026;2024-03-29T01:19:15;0.57;;;0.50;;
15287;SDS011;7745;48.708;9.026;2024-03-29T01:21:40;1.07;;;0.67;;
15287;SDS011;7745;48.708;9.026;2024-03-29T01:24:06;1.00;;;0.63;;
15287;SDS011;7745;48.708;9.026;2024-03-29T01:26:32;2.17;;;0.80;;
15287;SDS011;7745;48.708;9.026;2024-03-29T01:28:58;2.87;;;0.90;;
15287;SDS011;7745;48.708;9.026;2024-03-29T01:31:25;1.23;;;0.83;;
15287;SDS011;7745;48.708;9.026;2024-03-29T01:33:51;1.97;;;0.80;;
15287;SDS011;7745;48.708;9.026;2024-03-29T01:36:17;2.10;;;0.77;;
15287;SDS011;7745;48.708;9.026;2024-03-29T01:38:43;0.70;;;0.70;;
15287;SDS011;7745;48.708;9.026;2024-03-29T01:41:09;1.40;;;0.70;;
15287;SDS011;7745;48.708;9.026;2024-03-29T01:43:35;1.83;;;0.77;;
15287;SDS011;7745;48.708;9.026;2024-03-29T01:46:02;1.00;;;0.50;;
15287;SDS011;7745;48.708;9.026;2024-03-29T01:48:32;3.40;;;0.63;;
15287;SDS011;7745;48.708;9.026;2024-03-29T01:50:59;1.00;;;0.60;;
15287;SDS011;7745;48.708;9.026;2024-03-29T01:53:27;1.83;;;0.90;;
15287;SDS011;7745;48.708;9.026;2024-03-29T01:55:56;2.20;;;0.70;;
15287;SDS011;7745;48.708;9.026;2024-03-29T01:58:24;1.00;;;0.83;;
15287;SDS011;7745;48.708;9.026;2024-03-29T02:00:51;1.90;;;0.67;;
15287;SDS011;7745;48.708;9.026;2024-03-29T02:03:20;1.20;;;0.60;;
15287;SDS011;7745;48.708;9.026;2024-03-29T02:05:49;1.30;;;0.70;;
15287;SDS011;7745;48.708;9.026;2024-03-29T02:08:16;2.50;;;0.90;;
15287;SDS011;7745;48.708;9.026;2024-03-29T02:10:43;1.83;;;0.60;;
15287;SDS011;7745;48.708;9.026;2024-03-29T02:13:13;1.07;;;0.63;;
15287;SDS011;7745;48.708;9.026;2024-03-29T02:15:40;1.03;;;0.60;;
15287;SDS011;7745;48.708;9.026;2024-03-29T02:18:06;2.20;;;0.50;;
15287;SDS011;7745;48.708;9.026;2024-03-29T02:20:33;1.07;;;0.60;;
15287;SDS011;7745;48.708;9.026;2024-03-29T02:23:13;0.50;;;0.50;;
15287;SDS011;7745;48.708;9.026;2024-03-29T02:25:45;0.70;;;0.60;;
15287;SDS011;7745;48.708;9.026;2024-03-29T02:28:12;1.17;;;0.50;;
15287;SDS011;7745;48.708;9.026;2024-03-29T02:30:39;1.20;;;0.70;;
15287;SDS011;7745;48.708;9.026;2024-03-29T02:33:06;2.17;;;0.67;;
15287;SDS011;7745;48.708;9.026;2024-03-29T02:35:33;1.67;;;1.10;;
15287;SDS011;7745;48.708;9.026;2024-03-29T02:38:00;0.93;;;0.57;;
15287;SDS011;7745;48.708;9.026;2024-03-29T02:40:26;2.73;;;0.60;;
15287;SDS011;7745;48.708;9.026;2024-03-29T02:42:54;1.93;;;0.70;;
15287;SDS011;7745;48.708;9.026;2024-03-29T02:45:21;0.60;;;0.50;;
15287;SDS011;7745;48.708;9.026;2024-03-29T02:47:47;1.17;;;0.60;;
15287;SDS011;7745;48.708;9.026;2024-03-29T02:50:14;0.93;;;0.70;;
15287;SDS011;7745;48.708;9.026;2024-03-29T02:52:40;0.73;;;0.50;;
15287;SDS011;7745;48.708;9.026;2024-03-29T02:55:07;0.73;;;0.47;;
15287;SDS011;7745;48.708;9.026;2024-03-29T02:57:35;0.87;;;0.50;;
15287;SDS011;7745;48.708;9.026;2024-03-29T03:00:04;0.70;;;0.50;;
15287;SDS011;7745;48.708;9.026;2024-03-29T03:02:30;1.10;;;0.70;;
15287;SDS011;7745;48.708;9.026;2024-03-29T03:04:57;1.00;;;0.70;;
15287;SDS011;7745;48.708;9.026;2024-03-29T03:07:24;0.47;;;0.47;;
15287;SDS011;7745;48.708;9.026;2024-03-29T03:10:08;1.30;;;0.70;;
15287;SDS011;7745;48.708;9.026;2024-03-29T03:12:53;2.07;;;0.60;;
15287;SDS011;7745;48.708;9.026;2024-03-29T03:15:21;2.10;;;0.50;;
15287;SDS011;7745;48.708;9.026;2024-03-29T03:17:48;1.90;;;0.80;;
15287;SDS011;7745;48.708;9.026;2024-03-29T03:20:13;1.13;;;0.73;;
15287;SDS011;7745;48.708;9.026;2024-03-29T03:22:41;1.60;;;0.80;;
15287;SDS011;7745;48.708;9.026;2024-03-29T03:25:07;1.70;;;0.63;;
15287;SDS011;7745;48.708;9.026;2024-03-29T03:27:34;2.50;;;0.63;;
15287;SDS011;7745;48.708;9.026;2024-03-29T03:30:00;1.27;;;0.80;;
15287;SDS011;7745;48.708;9.026;2024-03-29T03:32:28;2.57;;;0.90;;
15287;SDS011;7745;48.708;9.026;2024-03-29T03:34:54;3.60;;;1.10;;
15287;SDS011;7745;48.708;9.026;2024-03-29T03:37:21;2.00;;;1.37;;
15287;SDS011;7745;48.708;9.026;2024-03-29T03:39:47;1.83;;;1.00;;
15287;SDS011;7745;48.708;9.026;2024-03-29T03:42:13;1.50;;;1.00;;
15287;SDS011;7745;48.708;9.026;2024-03-29T03:44:39;2.63;;;0.97;;
15287;SDS011;7745;48.708;9.026;2024-03-29T03:47:06;1.17;;;0.80;;
15287;SDS011;7745;48.708;9.026;2024-03-29T03:49:33;1.97;;;0.77;;
15287;SDS011;7745;48.708;9.026;2024-03-29T03:52:00;3.57;;;0.70;;
15287;SDS011;7745;48.708;9.026;2024-03-29T03:54:26;2.33;;;0.83;;
15287;SDS011;7745;48.708;9.026;2024-03-29T03:56:53;2.47;;;0.70;;
15287;SDS011;7745;48.708;9.026;2024-03-29T03:59:19;0.53;;;0.50;;
15287;SDS011;7745;48.708;9.026;2024-03-29T04:01:45;2.27;;;0.70;;
15287;SDS011;7745;48.708;9.026;2024-03-29T04:04:11;1.90;;;0.67;;
15287;SDS011;7745;48.708;9.026;2024-03-29T04:06:40;0.73;;;0.57;;
15287;SDS011;7745;48.708;9.026;2024-03-29T04:09:05;1.57;;;0.77;;
15287;SDS011;7745;48.708;9.026;2024-03-29T04:11:33;0.97;;;0.57;;
15287;SDS011;7745;48.708;9.026;2024-03-29T04:13:59;0.60;;;0.50;;
15287;SDS011;7745;48.708;9.026;2024-03-29T04:16:26;0.80;;;0.60;;
15287;SDS011;7745;48.708;9.026;2024-03-29T04:18:52;5.47;;;0.70;;
15287;SDS011;7745;48.708;9.026;2024-03-29T04:21:18;0.30;;;0.30;;
15287;SDS011;7745;48.708;9.026;2024-03-29T04:23:46;1.03;;;0.47;;
15287;SDS011;7745;48.708;9.026;2024-03-29T04:26:12;1.00;;;0.53;;
15287;SDS011;7745;48.708;9.026;2024-03-29T04:28:38;0.50;;;0.50;;
15287;SDS011;7745;48.708;9.026;2024-03-29T04:31:05;1.50;;;0.90;;
15287;SDS011;7745;48.708;9.026;2024-03-29T04:33:31;1.00;;;0.87;;
15287;SDS011;7745;48.708;9.026;2024-03-29T04:35:58;1.10;;;0.60;;
15287;SDS011;7745;48.708;9.026;2024-03-29T04:38:25;1.00;;;0.73;;
15287;SDS011;7745;48.708;9.026;2024-03-29T04:40:54;1.43;;;0.70;;
15287;SDS011;7745;48.708;9.026;2024-03-29T04:43:22;1.17;;;0.60;;
15287;SDS011;7745;48.708;9.026;2024-03-29T04:45:50;3.40;;;0.70;;
15287;SDS011;7745;48.708;9.026;2024-03-29T04:48:17;2.93;;;0.80;;
15287;SDS011;7745;48.708;9.026;2024-03-29T04:50:44;1.07;;;0.70;;
15287;SDS011;7745;48.708;9.026;2024-03-29T04:53:11;1.53;;;0.93;;
15287;SDS011;7745;48.708;9.026;2024-03-29T04:55:37;0.70;;;0.63;;
15287;SDS011;7745;48.708;9.026;2024-03-29T04:58:06;1.10;;;0.60;;
15287;SDS011;7745;48.708;9.026;2024-03-29T05:00:32;0.87;;;0.63;;
15287;SDS011;7745;48.708;9.026;2024-03-29T05:02:59;0.73;;;0.53;;
15287;SDS011;7745;48.708;9.026;2024-03-29T05:05:26;0.90;;;0.70;;
15287;SDS011;7745;48.708;9.026;2024-03-29T05:07:53;1.73;;;0.80;;
15287;SDS011;7745;48.708;9.026;2024-03-29T05:10:19;0.90;;;0.80;;
15287;SDS011;7745;48.708;9.026;2024-03-29T05:12:47;1.30;;;0.90;;
15287;SDS011;7745;48.708;9.026;2024-03-29T05:15:16;3.17;;;0.77;;
15287;SDS011;7745;48.708;9.026;2024-03-29T05:17:43;1.90;;;0.87;;
15287;SDS011;7745;48.708;9.026;2024-03-29T05:20:10;1.80;;;1.10;;
15287;SDS011;7745;48.708;9.026;2024-03-29T05:22:37;1.90;;;0.97;;
15287;SDS011;7745;48.708;9.026;2024-03-29T05:25:04;1.60;;;0.90;;
15287;SDS011;7745;48.708;9.026;2024-03-29T05:27:32;2.63;;;1.03;;
15287;SDS011;7745;48.708;9.026;2024-03-29T05:29:59;1.17;;;0.97;;
15287;SDS011;7745;48.708;9.026;2024-03-29T05:32:27;3.37;;;0.90;;
15287;SDS011;7745;48.708;9.026;2024-03-29T05:34:54;2.03;;;0.87;;
15287;SDS011;7745;48.708;9.026;2024-03-29T05:37:22;3.53;;;1.60;;
15287;SDS011;7745;48.708;9.026;2024-03-29T05:39:50;2.40;;;1.20;;
15287;SDS011;7745;48.708;9.026;2024-03-29T05:42:24;3.00;;;1.10;;
15287;SDS011;7745;48.708;9.026;2024-03-29T05:44:57;1.90;;;1.10;;
15287;SDS011;7745;48.708;9.026;2024-03-29T05:47:24;1.70;;;1.13;;
15287;SDS011;7745;48.708;9.026;2024-03-29T05:49:53;2.17;;;1.17;;
15287;SDS011;7745;48.708;9.026;2024-03-29T05:52:20;1.97;;;1.10;;
15287;SDS011;7745;48.708;9.026;2024-03-29T05:54:48;2.17;;;1.00;;
15287;SDS011;7745;48.708;9.026;2024-03-29T05:57:15;1.30;;;0.90;;
15287;SDS011;7745;48.708;9.026;2024-03-29T05:59:42;3.03;;;1.07;;
15287;SDS011;7745;48.708;9.026;2024-03-29T06:02:09;3.23;;;1.10;;
15287;SDS011;7745;48.708;9.026;2024-03-29T06:04:36;2.00;;;0.97;;
15287;SDS011;7745;48.708;9.026;2024-03-29T06:07:04;1.30;;;0.90;;
15287;SDS011;7745;48.708;9.026;2024-03-29T06:09:34;3.93;;;1.00;;
15287;SDS011;7745;48.708;9.026;2024-03-29T06:12:03;1.67;;;0.63;;
15287;SDS011;7745;48.708;9.026;2024-03-29T06:14:32;1.20;;;1.00;;
15287;SDS011;7745;48.708;9.026;2024-03-29T06:17:17;2.07;;;1.00;;
15287;SDS011;7745;48.708;9.026;2024-03-29T06:19:49;1.33;;;0.90;;
15287;SDS011;7745;48.708;9.026;2024-03-29T06:22:24;1.40;;;1.00;;
15287;SDS011;7745;48.708;9.026;2024-03-29T06:24:53;0.90;;;0.70;;
15287;SDS011;7745;48.708;9.026;2024-03-29T06:27:24;3.10;;;1.00;;
15287;SDS011;7745;48.708;9.026;2024-03-29T06:29:51;3.50;;;0.90;;
15287;SDS011;7745;48.708;9.026;2024-03-29T06:32:18;1.67;;;0.97;;
15287;SDS011;7745;48.708;9.026;2024-03-29T06:34:46;1.00;;;0.90;;
15287;SDS011;7745;48.708;9.026;2024-03-29T06:37:13;4.53;;;3.00;;
15287;SDS011;7745;48.708;9.026;2024-03-29T06:39:41;2.90;;;1.80;;
15287;SDS011;7745;48.708;9.026;2024-03-29T06:42:16;1.53;;;1.07;;
15287;SDS011;7745;48.708;9.026;2024-03-29T06:44:43;1.60;;;0.80;;
15287;SDS011;7745;48.708;9.026;2024-03-29T06:47:15;2.70;;;0.90;;
15287;SDS011;7745;48.708;9.026;2024-03-29T06:49:42;1.20;;;0.80;;
15287;SDS011;7745;48.708;9.026;2024-03-29T06:52:10;1.63;;;0.70;;
15287;SDS011;7745;48.708;9.026;2024-03-29T06:54:37;0.80;;;0.70;;
15287;SDS011;7745;48.708;9.026;2024-03-29T06:57:05;1.57;;;0.90;;
15287;SDS011;7745;48.708;9.026;2024-03-29T06:59:34;2.60;;;0.80;;
15287;SDS011;7745;48.708;9.026;2024-03-29T07:02:01;2.13;;;0.90;;
15287;SDS011;7745;48.708;9.026;2024-03-29T07:04:27;0.80;;;0.63;;
15287;SDS011;7745;48.708;9.026;2024-03-29T07:06:54;1.37;;;0.80;;
15287;SDS011;7745;48.708;9.026;2024-03-29T07:09:21;2.47;;;0.83;;
15287;SDS011;7745;48.708;9.026;2024-03-29T07:11:49;1.87;;;0.80;;
15287;SDS011;7745;48.708;9.026;2024-03-29T07:14:18;0.87;;;0.60;;
15287;SDS011;7745;48.708;9.026;2024-03-29T07:19:31;1.67;;;0.70;;
15287;SDS011;7745;48.708;9.026;2024-03-29T07:21:58;1.00;;;0.83;;
15287;SDS011;7745;48.708;9.026;2024-03-29T07:24:25;2.73;;;0.87;;
15287;SDS011;7745;48.708;9.026;2024-03-29T07:26:52;3.37;;;1.10;;
15287;SDS011;7745;48.708;9.026;2024-03-29T07:29:20;2.70;;;1.13;;
15287;SDS011;7745;48.708;9.026;2024-03-29T07:31:56;2.10;;;1.40;;
15287;SDS011;7745;48.708;9.026;2024-03-29T07:34:34;8.80;;;2.10;;
15287;SDS011;7745;48.708;9.026;2024-03-29T07:37:08;3.77;;;1.37;;
15287;SDS011;7745;48.708;9.026;2024-03-29T07:39:40;4.43;;;1.30;;
15287;SDS011;7745;48.708;9.026;2024-03-29T07:42:07;2.53;;;0.90;;
15287;SDS011;7745;48.708;9.026;2024-03-29T07:44:45;3.20;;;1.13;;
15287;SDS011;7745;48.708;9.026;2024-03-29T07:47:12;1.27;;;0.80;;
15287;SDS011;7745;48.708;9.026;2024-03-29T07:49:39;3.57;;;1.00;;
15287;SDS011;7745;48.708;9.026;2024-03-29T07:52:06;4.70;;;1.40;;
15287;SDS011;7745;48.708;9.026;2024-03-29T07:54:34;2.80;;;1.30;;
15287;SDS011;7745;48.708;9.026;2024-03-29T07:57:04;2.87;;;1.60;;
15287;SDS011;7745;48.708;9.026;2024-03-29T07:59:33;5.40;;;1.17;;
15287;SDS011;7745;48.708;9.026;2024-03-29T08:02:01;2.97;;;1.20;;
15287;SDS011;7745;48.708;9.026;2024-03-29T08:04:28;1.80;;;0.90;;
15287;SDS011;7745;48.708;9.026;2024-03-29T08:06:55;0.87;;;0.70;;
15287;SDS011;7745;48.708;9.026;2024-03-29T08:09:22;1.77;;;1.10;;
15287;SDS011;7745;48.708;9.026;2024-03-29T08:11:49;1.00;;;0.90;;
15287;SDS011;7745;48.708;9.026;2024-03-29T08:14:15;3.20;;;1.20;;
15287;SDS011;7745;48.708;9.026;2024-03-29T08:16:42;1.37;;;1.00;;
15287;SDS011;7745;48.708;9.026;2024-03-29T08:19:11;2.77;;;0.93;;
15287;SDS011;7745;48.708;9.026;2024-03-29T08:21:38;1.03;;;0.70;;
15287;SDS011;7745;48.708;9.026;2024-03-29T08:24:05;3.97;;;1.20;;
15287;SDS011;7745;48.708;9.026;2024-03-29T08:26:32;1.93;;;1.10;;
15287;SDS011;7745;48.708;9.026;2024-03-29T08:28:59;1.67;;;1.10;;
15287;SDS011;7745;48.708;9.026;2024-03-29T08:31:26;1.60;;;0.80;;
15287;SDS011;7745;48.708;9.026;2024-03-29T08:33:53;3.37;;;1.10;;
15287;SDS011;7745;48.708;9.026;2024-03-29T08:36:21;1.10;;;0.90;;
15287;SDS011;7745;48.708;9.026;2024-03-29T08:38:48;2.27;;;1.00;;
15287;SDS011;7745;48.708;9.026;2024-03-29T08:41:15;0.97;;;0.80;;
15287;SDS011;7745;48.708;9.026;2024-03-29T08:43:42;1.60;;;0.60;;
15287;SDS011;7745;48.708;9.026;2024-03-29T08:46:09;1.43;;;0.60;;
15287;SDS011;7745;48.708;9.026;2024-03-29T08:48:36;1.70;;;0.80;;
15287;SDS011;7745;48.708;9.026;2024-03-29T08:51:05;2.67;;;0.90;;
15287;SDS011;7745;48.708;9.026;2024-03-29T08:53:33;1.63;;;0.80;;
15287;SDS011;7745;48.708;9.026;2024-03-29T08:56:00;0.90;;;0.87;;
15287;SDS011;7745;48.708;9.026;2024-03-29T08:58:26;2.13;;;1.13;;
15287;SDS011;7745;48.708;9.026;2024-03-29T09:00:53;2.70;;;1.40;;
15287;SDS011;7745;48.708;9.026;2024-03-29T09:03:21;2.63;;;1.20;;
15287;SDS011;7745;48.708;9.026;2024-03-29T09:05:48;3.87;;;1.73;;
15287;SDS011;7745;48.708;9.026;2024-03-29T09:08:15;2.93;;;1.27;;
15287;SDS011;7745;48.708;9.026;2024-03-29T09:10:44;3.23;;;2.00;;
15287;SDS011;7745;48.708;9.026;2024-03-29T09:13:12;4.73;;;2.40;;
15287;SDS011;7745;48.708;9.026;2024-03-29T09:15:39;5.63;;;2.70;;
15287;SDS011;7745;48.708;9.026;2024-03-29T09:18:06;9.47;;;3.20;;
15287;SDS011;7745;48.708;9.026;2024-03-29T09:20:42;9.50;;;3.30;;
15287;SDS011;7745;48.708;9.026;2024-03-29T09:23:09;7.40;;;2.20;;
15287;SDS011;7745;48.708;9.026;2024-03-29T09:25:39;10.37;;;3.83;;
15287;SDS011;7745;48.708;9.026;2024-03-29T09:28:07;11.57;;;3.67;;
15287;SDS011;7745;48.708;9.026;2024-03-29T09:30:35;6.13;;;2.77;;
15287;SDS011;7745;48.708;9.026;2024-03-29T09:33:02;4.20;;;2.00;;
15287;SDS011;7745;48.708;9.026;2024-03-29T09:35:31;2.60;;;1.80;;
15287;SDS011;7745;48.708;9.026;2024-03-29T09:37:58;2.33;;;1.70;;
15287;SDS011;7745;48.708;9.026;2024-03-29T09:40:25;5.10;;;2.53;;
15287;SDS011;7745;48.708;9.026;2024-03-29T09:42:53;4.47;;;2.50;;
15287;SDS011;7745;48.708;9.026;2024-03-29T09:45:28;4.43;;;2.17;;
15287;SDS011;7745;48.708;9.026;2024-03-29T09:47:59;4.83;;;1.90;;
15287;SDS011;7745;48.708;9.026;2024-03-29T09:50:28;2.77;;;1.80;;
15287;SDS011;7745;48.708;9.026;2024-03-29T09:52:55;2.67;;;1.83;;
15287;SDS011;7745;48.708;9.026;2024-03-29T09:55:22;3.63;;;1.40;;
15287;SDS011;7745;48.708;9.026;2024-03-29T09:57:49;3.60;;;1.70;;
15287;SDS011;7745;48.708;9.026;2024-03-29T10:00:17;3.20;;;1.70;;
15287;SDS011;7745;48.708;9.026;2024-03-29T10:02:49;5.03;;;1.67;;
15287;SDS011;7745;48.708;9.026;2024-03-29T10:05:19;1.93;;;1.20;;
15287;SDS011;7745;48.708;9.026;2024-03-29T10:07:47;2.33;;;1.50;;
15287;SDS011;7745;48.708;9.026;2024-03-29T10:10:15;1.70;;;1.30;;
15287;SDS011;7745;48.708;9.026;2024-03-29T10:12:42;1.80;;;1.30;;
15287;SDS011;7745;48.708;9.026;2024-03-29T10:15:09;1.80;;;1.00;;
15287;SDS011;7745;48.708;9.026;2024-03-29T10:17:39;1.03;;;0.80;;
15287;SDS011;7745;48.708;9.026;2024-03-29T10:20:08;1.70;;;1.00;;
15287;SDS011;7745;48.708;9.026;2024-03-29T10:22:36;1.83;;;0.80;;
15287;SDS011;7745;48.708;9.026;2024-03-29T10:25:06;1.63;;;0.87;;
15287;SDS011;7745;48.708;9.026;2024-03-29T10:27:33;1.63;;;0.90;;
15287;SDS011;7745;48.708;9.026;2024-03-29T10:30:00;2.03;;;0.80;;
15287;SDS011;7745;48.708;9.026;2024-03-29T10:32:27;2.87;;;1.03;;
15287;SDS011;7745;48.708;9.026;2024-03-29T10:34:54;1.30;;;0.90;;
15287;SDS011;7745;48.708;9.026;2024-03-29T10:37:23;1.90;;;1.10;;
15287;SDS011;7745;48.708;9.026;2024-03-29T10:39:54;2.07;;;1.00;;
15287;SDS011;7745;48.708;9.026;2024-03-29T10:42:21;1.90;;;1.00;;
15287;SDS011;7745;48.708;9.026;2024-03-29T10:44:51;2.27;;;1.07;;
15287;SDS011;7745;48.708;9.026;2024-03-29T10:47:21;3.00;;;1.10;;
15287;SDS011;7745;48.708;9.026;2024-03-29T10:49:50;1.77;;;1.13;;
15287;SDS011;7745;48.708;9.026;2024-03-29T10:52:17;2.00;;;1.10;;
15287;SDS011;7745;48.708;9.026;2024-03-29T10:54:46;1.20;;;0.83;;
15287;SDS011;7745;48.708;9.026;2024-03-29T10:57:16;3.37;;;1.00;;
15287;SDS011;7745;48.708;9.026;2024-03-29T10:59:48;2.10;;;0.90;;
15287;SDS011;7745;48.708;9.026;2024-03-29T11:02:20;1.23;;;0.87;;
15287;SDS011;7745;48.708;9.026;2024-03-29T11:04:57;3.03;;;0.97;;
15287;SDS011;7745;48.708;9.026;2024-03-29T11:07:31;1.50;;;1.00;;
15287;SDS011;7745;48.708;9.026;2024-03-29T11:10:06;1.27;;;0.90;;
15287;SDS011;7745;48.708;9.026;2024-03-29T11:12:39;2.37;;;0.83;;
15287;SDS011;7745;48.708;9.026;2024-03-29T11:15:15;1.10;;;0.70;;
15287;SDS011;7745;48.708;9.026;2024-03-29T11:17:52;2.20;;;1.00;;
15287;SDS011;7745;48.708;9.026;2024-03-29T11:20:20;1.87;;;0.90;;
15287;SDS011;7745;48.708;9.026;2024-03-29T11:22:52;1.23;;;0.90;;
15287;SDS011;7745;48.708;9.026;2024-03-29T11:25:21;1.63;;;0.90;;
15287;SDS011;7745;48.708;9.026;2024-03-29T11:27:48;1.43;;;0.93;;
15287;SDS011;7745;48.708;9.026;2024-03-29T11:30:16;1.10;;;1.00;;
15287;SDS011;7745;48.708;9.026;2024-03-29T11:32:44;3.03;;;1.57;;
15287;SDS011;7745;48.708;9.026;2024-03-29T11:35:14;3.27;;;1.07;;
15287;SDS011;7745;48.708;9.026;2024-03-29T11:37:41;2.27;;;0.90;;
15287;SDS011;7745;48.708;9.026;2024-03-29T11:40:10;1.63;;;1.03;;
15287;SDS011;7745;48.708;9.026;2024-03-29T11:42:43;2.77;;;0.80;;
15287;SDS011;7745;48.708;9.026;2024-03-29T11:45:10;1.97;;;1.03;;
15287;SDS011;7745;48.708;9.026;2024-03-29T11:47:37;1.50;;;0.90;;
15287;SDS011;7745;48.708;9.026;2024-03-29T11:50:06;1.67;;;0.97;;
15287;SDS011;7745;48.708;9.026;2024-03-29T11:52:34;1.20;;;0.80;;
15287;SDS011;7745;48.708;9.026;2024-03-29T11:55:02;1.20;;;1.10;;
15287;SDS011;7745;48.708;9.026;2024-03-29T11:57:29;1.30;;;0.87;;
15287;SDS011;7745;48.708;9.026;2024-03-29T11:59:57;2.03;;;1.00;;
15287;SDS011;7745;48.708;9.026;2024-03-29T12:02:30;1.63;;;0.80;;
15287;SDS011;7745;48.708;9.026;2024-03-29T12:04:59;1.57;;;1.07;;
15287;SDS011;7745;48.708;9.026;2024-03-29T12:07:27;3.90;;;2.30;;
15287;SDS011;7745;48.708;9.026;2024-03-29T12:09:54;3.30;;;1.70;;
15287;SDS011;7745;48.708;9.026;2024-03-29T12:12:24;2.97;;;1.30;;
15287;SDS011;7745;48.708;9.026;2024-03-29T12:14:51;1.50;;;1.20;;
15287;SDS011;7745;48.708;9.026;2024-03-29T12:17:19;2.13;;;1.30;;
15287;SDS011;7745;48.708;9.026;2024-03-29T12:19:50;2.27;;;1.20;;
15287;SDS011;7745;48.708;9.026;2024-03-29T12:22:20;1.93;;;1.07;;
15287;SDS011;7745;48.708;9.026;2024-03-29T12:24:47;1.67;;;1.20;;
15287;SDS011;7745;48.708;9.026;2024-03-29T12:27:14;1.37;;;0.90;;
15287;SDS011;7745;48.708;9.026;2024-03-29T12:29:43;1.47;;;1.03;;
15287;SDS011;7745;48.708;9.026;2024-03-29T12:32:11;1.93;;;1.00;;
15287;SDS011;7745;48.708;9.026;2024-03-29T12:34:39;1.00;;;0.70;;
15287;SDS011;7745;48.708;9.026;2024-03-29T12:37:05;2.00;;;0.93;;
15287;SDS011;7745;48.708;9.026;2024-03-29T12:39:35;3.27;;;1.00;;
15287;SDS011;7745;48.708;9.026;2024-03-29T12:42:05;0.83;;;0.43;;
15287;SDS011;7745;48.708;9.026;2024-03-29T12:44:33;1.97;;;0.67;;
15287;SDS011;7745;48.708;9.026;2024-03-29T12:47:00;0.90;;;0.60;;
15287;SDS011;7745;48.708;9.026;2024-03-29T12:49:27;1.13;;;0.63;;
15287;SDS011;7745;48.708;9.026;2024-03-29T12:51:56;1.50;;;0.67;;
15287;SDS011;7745;48.708;9.026;2024-03-29T12:54:23;2.10;;;0.60;;
15287;SDS011;7745;48.708;9.026;2024-03-29T12:56:52;1.30;;;0.70;;
15287;SDS011;7745;48.708;9.026;2024-03-29T12:59:19;1.80;;;0.80;;
15287;SDS011;7745;48.708;9.026;2024-03-29T13:01:46;1.87;;;0.50;;
15287;SDS011;7745;48.708;9.026;2024-03-29T13:04:12;1.90;;;0.60;;
15287;SDS011;7745;48.708;9.026;2024-03-29T13:06:39;0.70;;;0.50;;
15287;SDS011;7745;48.708;9.026;2024-03-29T13:09:07;1.00;;;0.73;;
15287;SDS011;7745;48.708;9.026;2024-03-29T13:11:46;1.97;;;0.53;;
15287;SDS011;7745;48.708;9.026;2024-03-29T13:14:13;0.97;;;0.50;;
15287;SDS011;7745;48.708;9.026;2024-03-29T13:16:40;1.87;;;0.60;;
15287;SDS011;7745;48.708;9.026;2024-03-29T13:19:07;1.13;;;0.60;;
15287;SDS011;7745;48.708;9.026;2024-03-29T13:21:35;0.87;;;0.50;;
15287;SDS011;7745;48.708;9.026;2024-03-29T13:24:02;0.60;;;0.50;;
15287;SDS011;7745;48.708;9.026;2024-03-29T13:26:31;0.60;;;0.53;;
15287;SDS011;7745;48.708;9.026;2024-03-29T13:28:57;1.23;;;0.50;;
15287;SDS011;7745;48.708;9.026;2024-03-29T13:31:25;0.87;;;0.50;;
15287;SDS011;7745;48.708;9.026;2024-03-29T13:33:53;0.70;;;0.60;;
15287;SDS011;7745;48.708;9.026;2024-03-29T13:36:28;1.60;;;0.60;;
15287;SDS011;7745;48.708;9.026;2024-03-29T13:38:55;2.07;;;0.60;;
15287;SDS011;7745;48.708;9.026;2024-03-29T13:41:22;1.70;;;0.70;;
15287;SDS011;7745;48.708;9.026;2024-03-29T13:43:51;2.40;;;0.50;;
15287;SDS011;7745;48.708;9.026;2024-03-29T13:46:18;1.37;;;0.50;;
15287;SDS011;7745;48.708;9.026;2024-03-29T13:48:44;0.90;;;0.70;;
15287;SDS011;7745;48.708;9.026;2024-03-29T13:51:13;1.40;;;0.60;;
15287;SDS011;7745;48.708;9.026;2024-03-29T13:53:41;1.63;;;0.60;;
15287;SDS011;7745;48.708;9.026;2024-03-29T13:56:08;1.17;;;0.70;;
15287;SDS011;7745;48.708;9.026;2024-03-29T13:58:35;1.73;;;0.60;;
15287;SDS011;7745;48.708;9.026;2024-03-29T14:01:03;0.90;;;0.70;;
15287;SDS011;7745;48.708;9.026;2024-03-29T14:03:30;2.07;;;0.80;;
15287;SDS011;7745;48.708;9.026;2024-03-29T14:05:57;3.30;;;0.83;;
15287;SDS011;7745;48.708;9.026;2024-03-29T14:08:24;1.33;;;0.60;;
15287;SDS011;7745;48.708;9.026;2024-03-29T14:10:52;1.70;;;0.80;;
15287;SDS011;7745;48.708;9.026;2024-03-29T14:13:19;1.20;;;0.73;;
15287;SDS011;7745;48.708;9.026;2024-03-29T14:15:46;2.07;;;1.87;;
15287;SDS011;7745;48.708;9.026;2024-03-29T14:18:14;1.30;;;0.70;;
15287;SDS011;7745;48.708;9.026;2024-03-29T14:20:40;1.27;;;0.77;;
15287;SDS011;7745;48.708;9.026;2024-03-29T14:23:07;0.63;;;0.50;;
15287;SDS011;7745;48.708;9.026;2024-03-29T14:25:37;2.10;;;0.60;;
15287;SDS011;7745;48.708;9.026;2024-03-29T14:28:05;1.10;;;0.80;;
15287;SDS011;7745;48.708;9.026;2024-03-29T14:30:32;1.80;;;0.90;;
15287;SDS011;7745;48.708;9.026;2024-03-29T14:32:59;1.03;;;0.60;;
15287;SDS011;7745;48.708;9.026;2024-03-29T14:35:36;0.90;;;0.70;;
15287;SDS011;7745;48.708;9.026;2024-03-29T14:38:03;2.57;;;0.80;;
15287;SDS011;7745;48.708;9.026;2024-03-29T14:40:30;1.77;;;0.60;;
15287;SDS011;7745;48.708;9.026;2024-03-29T14:42:57;1.27;;;0.63;;
15287;SDS011;7745;48.708;9.026;2024-03-29T14:45:24;1.70;;;0.70;;
15287;SDS011;7745;48.708;9.026;2024-03-29T14:47:52;0.80;;;0.57;;
15287;SDS011;7745;48.708;9.026;2024-03-29T14:50:21;0.83;;;0.60;;
15287;SDS011;7745;48.708;9.026;2024-03-29T14:52:53;0.97;;;0.50;;
15287;SDS011;7745;48.708;9.026;2024-03-29T14:55:22;2.43;;;0.57;;
15287;SDS011;7745;48.708;9.026;2024-03-29T14:57:51;1.50;;;0.40;;
15287;SDS011;7745;48.708;9.026;2024-03-29T15:00:28;2.53;;;0.60;;
15287;SDS011;7745;48.708;9.026;2024-03-29T15:02:55;4.50;;;2.80;;
15287;SDS011;7745;48.708;9.026;2024-03-29T15:05:22;1.43;;;0.60;;
15287;SDS011;7745;48.708;9.026;2024-03-29T15:07:52;1.43;;;0.60;;